createdAt,value
2023-05-20T00:01:27.964Z,8.02
2023-05-20T00:03:54.610Z,6.50
2023-05-20T00:06:21.419Z,8.73
2023-05-20T00:08:47.855Z,9.55
2023-05-20T00:11:14.406Z,7.85
2023-05-20T00:13:40.981Z,9.68
2023-05-20T00:16:07.710Z,9.15
2023-05-20T00:18:34.254Z,6.13
2023-05-20T00:21:00.873Z,7.07
2023-05-20T00:23:27.368Z,8.30
2023-05-20T00:25:53.838Z,8.68
2023-05-20T00:28:20.345Z,6.93
2023-05-20T00:30:47.078Z,8.05
2023-05-20T00:33:13.587Z,7.20
2023-05-20T00:35:40.070Z,10.30
2023-05-20T00:38:06.492Z,7.88
2023-05-20T00:40:33.019Z,11.18
2023-05-20T00:42:59.593Z,8.52
2023-05-20T00:45:26.205Z,7.97
2023-05-20T00:47:52.809Z,8.73
2023-05-20T00:50:19.376Z,9.88
2023-05-20T00:52:48.248Z,8.77
2023-05-20T00:55:14.775Z,9.82
2023-05-20T00:57:41.307Z,11.57
2023-05-20T01:00:08.419Z,12.48
2023-05-20T01:02:35.040Z,8.50
2023-05-20T01:05:01.757Z,8.63
2023-05-20T01:07:28.266Z,10.85
2023-05-20T01:09:56.167Z,8.48
2023-05-20T01:12:29.636Z,13.13
2023-05-20T01:15:02.049Z,10.05
2023-05-20T01:17:32.979Z,8.70
2023-05-20T01:20:00.272Z,12.77
2023-05-20T01:22:27.534Z,9.73
2023-05-20T01:24:54.113Z,10.48
2023-05-20T01:27:22.504Z,8.88
2023-05-20T01:29:53.573Z,11.05
2023-05-20T01:32:25.960Z,8.77
2023-05-20T01:34:53.098Z,11.35
2023-05-20T01:37:20.027Z,9.98
2023-05-20T01:39:47.874Z,9.40
2023-05-20T01:42:15.509Z,12.48
2023-05-20T01:44:42.070Z,8.80
2023-05-20T01:47:08.591Z,11.10
2023-05-20T01:49:35.181Z,8.55
2023-05-20T01:52:01.679Z,9.77
2023-05-20T01:54:28.165Z,10.18
2023-05-20T01:56:54.720Z,11.32
2023-05-20T01:59:21.199Z,8.90
2023-05-20T02:01:47.709Z,10.73
2023-05-20T02:04:14.549Z,9.15
2023-05-20T02:06:41.092Z,9.25
2023-05-20T02:09:07.648Z,6.75
2023-05-20T02:11:34.233Z,9.18
2023-05-20T02:14:00.953Z,9.57
2023-05-20T02:16:27.567Z,8.13
2023-05-20T02:18:54.122Z,11.73
2023-05-20T02:21:21.084Z,8.50
2023-05-20T02:23:47.652Z,9.00
2023-05-20T02:26:14.174Z,11.55
2023-05-20T02:28:44.886Z,11.35
2023-05-20T02:31:11.349Z,7.57
2023-05-20T02:33:37.874Z,9.38
2023-05-20T02:36:04.932Z,8.35
2023-05-20T02:38:32.379Z,12.38
2023-05-20T02:40:59.892Z,10.23
2023-05-20T02:43:26.579Z,10.25
2023-05-20T02:45:53.282Z,12.23
2023-05-20T02:48:22.224Z,11.63
2023-05-20T02:50:48.795Z,7.70
2023-05-20T02:53:15.363Z,10.60
2023-05-20T02:55:41.917Z,10.95
2023-05-20T02:58:08.394Z,10.23
2023-05-20T03:00:41.006Z,12.52
2023-05-20T03:03:08.310Z,13.30
2023-05-20T03:05:37.944Z,9.65
2023-05-20T03:08:10.596Z,11.60
2023-05-20T03:10:37.912Z,9.60
2023-05-20T03:13:08.720Z,9.20
2023-05-20T03:15:36.091Z,11.35
2023-05-20T03:18:02.926Z,9.73
2023-05-20T03:20:30.074Z,9.88
2023-05-20T03:22:57.002Z,8.95
2023-05-20T03:25:24.702Z,12.27
2023-05-20T03:27:51.465Z,6.57
2023-05-20T03:30:18.023Z,9.40
2023-05-20T03:32:44.629Z,8.90
2023-05-20T03:35:11.502Z,9.35
2023-05-20T03:37:38.155Z,9.10
2023-05-20T03:40:08.070Z,8.30
2023-05-20T03:42:34.856Z,10.48
2023-05-20T03:45:01.546Z,9.75
2023-05-20T03:47:28.718Z,10.32
2023-05-20T03:49:55.393Z,9.32
2023-05-20T03:52:22.163Z,8.85
2023-05-20T03:54:48.661Z,9.32
2023-05-20T03:57:15.229Z,9.38
2023-05-20T03:59:41.826Z,10.13
2023-05-20T04:02:09.736Z,12.05
2023-05-20T04:04:36.386Z,10.10
2023-05-20T04:07:04.949Z,9.23
2023-05-20T04:09:31.454Z,8.15
2023-05-20T04:11:57.945Z,9.38
2023-05-20T04:14:24.435Z,10.15
2023-05-20T04:16:51.594Z,9.18
2023-05-20T04:19:21.105Z,8.25
2023-05-20T04:21:47.663Z,13.18
2023-05-20T04:24:14.594Z,9.35
2023-05-20T04:26:41.182Z,13.27
2023-05-20T04:29:07.639Z,9.07
2023-05-20T04:31:34.172Z,8.73
2023-05-20T04:34:00.832Z,12.00
2023-05-20T04:36:29.930Z,10.35
2023-05-20T04:38:56.461Z,9.05
2023-05-20T04:41:22.988Z,8.48
2023-05-20T04:43:49.885Z,10.50
2023-05-20T04:46:16.913Z,12.10
2023-05-20T04:48:43.864Z,10.07
2023-05-20T04:51:10.865Z,10.05
2023-05-20T04:53:37.350Z,9.70
2023-05-20T04:56:03.986Z,9.02
2023-05-20T04:58:31.652Z,10.55
2023-05-20T05:00:58.179Z,10.20
2023-05-20T05:03:24.768Z,9.13
2023-05-20T05:05:51.579Z,7.70
2023-05-20T05:08:18.096Z,8.95
2023-05-20T05:10:45.624Z,10.15
2023-05-20T05:13:12.108Z,11.55
2023-05-20T05:15:38.570Z,8.45
2023-05-20T05:18:05.093Z,8.13
2023-05-20T05:20:31.558Z,8.07
2023-05-20T05:22:58.076Z,7.20
2023-05-20T05:25:24.671Z,6.68
2023-05-20T05:27:51.255Z,9.32
2023-05-20T05:30:18.196Z,9.57
2023-05-20T05:32:44.779Z,10.27
2023-05-20T05:35:11.375Z,12.73
2023-05-20T05:37:37.908Z,9.70
2023-05-20T05:40:04.658Z,8.07
2023-05-20T05:42:31.205Z,10.35
2023-05-20T05:44:57.673Z,10.10
2023-05-20T05:47:24.161Z,9.98
2023-05-20T05:49:50.641Z,9.00
2023-05-20T05:52:17.075Z,8.05
2023-05-20T05:54:44.073Z,10.05
2023-05-20T05:57:12.018Z,9.55
2023-05-20T05:59:38.510Z,11.73
2023-05-20T06:02:05.153Z,7.38
2023-05-20T06:04:31.709Z,7.70
2023-05-20T06:06:58.711Z,9.52
2023-05-20T06:09:25.208Z,9.90
2023-05-20T06:11:51.773Z,7.13
2023-05-20T06:14:18.231Z,9.43
2023-05-20T06:16:44.874Z,9.07
2023-05-20T06:19:11.436Z,8.57
2023-05-20T06:21:38.535Z,8.00
2023-05-20T06:24:05.641Z,10.75
2023-05-20T06:26:32.142Z,6.65
2023-05-20T06:28:58.722Z,8.80
2023-05-20T06:31:25.705Z,9.40
2023-05-20T06:33:52.275Z,7.55
2023-05-20T06:36:18.830Z,8.95
2023-05-20T06:38:45.359Z,8.38
2023-05-20T06:41:11.901Z,9.73
2023-05-20T06:43:38.552Z,8.30
2023-05-20T06:46:05.135Z,7.90
2023-05-20T06:48:31.652Z,7.13
2023-05-20T06:50:58.332Z,7.93
2023-05-20T06:53:24.918Z,6.43
2023-05-20T06:55:55.482Z,7.97
2023-05-20T06:58:21.940Z,6.95
2023-05-20T07:00:48.429Z,6.72
2023-05-20T07:03:14.875Z,5.68
2023-05-20T07:05:41.413Z,6.60
2023-05-20T07:08:08.187Z,7.60
2023-05-20T07:10:34.971Z,8.35
2023-05-20T07:13:01.986Z,6.55
2023-05-20T07:15:28.532Z,5.25
2023-05-20T07:17:55.182Z,6.55
2023-05-20T07:20:21.677Z,7.40
2023-05-20T07:22:50.687Z,8.68
2023-05-20T07:25:17.552Z,8.35
2023-05-20T07:27:44.029Z,5.82
2023-05-20T07:30:11.104Z,7.13
2023-05-20T07:32:37.627Z,6.88
2023-05-20T07:35:04.525Z,7.43
2023-05-20T07:37:31.188Z,8.32
2023-05-20T07:39:57.707Z,8.00
2023-05-20T07:42:24.210Z,6.00
2023-05-20T07:44:50.787Z,8.85
2023-05-20T07:47:17.249Z,7.25
2023-05-20T07:49:44.500Z,9.05
2023-05-20T07:52:11.271Z,5.40
2023-05-20T07:54:37.872Z,5.93
2023-05-20T07:57:04.634Z,7.60
2023-05-20T07:59:31.137Z,8.02
2023-05-20T08:01:58.393Z,7.32
2023-05-20T08:04:25.509Z,4.22
2023-05-20T08:06:53.156Z,5.57
2023-05-20T08:09:19.609Z,7.20
2023-05-20T08:11:47.489Z,6.03
2023-05-20T08:14:14.215Z,5.57
2023-05-20T08:16:42.264Z,4.65
2023-05-20T08:19:08.967Z,6.18
2023-05-20T08:21:35.526Z,5.25
2023-05-20T08:24:02.244Z,5.05
2023-05-20T08:26:28.682Z,7.18
2023-05-20T08:28:55.229Z,4.32
2023-05-20T08:31:21.717Z,5.03
2023-05-20T08:33:49.047Z,6.82
2023-05-20T08:36:16.071Z,4.47
2023-05-20T08:38:42.628Z,6.90
2023-05-20T08:41:09.086Z,4.90
2023-05-20T08:43:35.765Z,5.80
2023-05-20T08:46:05.296Z,5.80
2023-05-20T08:48:32.721Z,4.30
2023-05-20T08:50:59.815Z,4.90
2023-05-20T08:53:26.741Z,4.60
2023-05-20T08:56:00.596Z,6.75
2023-05-20T08:58:28.204Z,5.03
2023-05-20T09:00:54.806Z,4.55
2023-05-20T09:03:21.618Z,5.70
2023-05-20T09:05:48.403Z,5.45
2023-05-20T09:08:15.007Z,3.75
2023-05-20T09:10:42.039Z,6.07
2023-05-20T09:13:10.106Z,4.45
2023-05-20T09:15:37.233Z,4.55
2023-05-20T09:18:05.596Z,3.90
2023-05-20T09:20:37.267Z,4.85
2023-05-20T09:23:08.878Z,4.13
2023-05-20T09:25:37.229Z,3.40
2023-05-20T09:28:10.105Z,7.07
2023-05-20T09:30:36.668Z,4.88
2023-05-20T09:33:05.132Z,5.25
2023-05-20T09:35:35.694Z,9.20
2023-05-20T09:38:03.485Z,6.97
2023-05-20T09:40:30.291Z,4.40
2023-05-20T09:43:07.147Z,4.78
2023-05-20T09:45:34.059Z,3.60
2023-05-20T09:48:02.262Z,4.38
2023-05-20T09:50:30.126Z,4.85
2023-05-20T09:52:56.911Z,4.45
2023-05-20T09:55:25.074Z,3.85
2023-05-20T09:57:51.878Z,5.20
2023-05-20T10:00:19.751Z,7.60
2023-05-20T10:02:51.441Z,6.68
2023-05-20T10:05:19.280Z,5.57
2023-05-20T10:07:59.880Z,6.72
2023-05-20T10:10:37.414Z,4.15
2023-05-20T10:13:18.567Z,3.25
2023-05-20T10:15:54.553Z,4.75
2023-05-20T10:18:26.886Z,5.55
2023-05-20T10:20:53.462Z,4.60
2023-05-20T10:23:30.628Z,3.45
2023-05-20T10:25:58.103Z,5.43
2023-05-20T10:28:36.393Z,4.13
2023-05-20T10:31:03.736Z,3.65
2023-05-20T10:33:30.551Z,7.47
2023-05-20T10:36:01.088Z,7.35
2023-05-20T10:38:27.610Z,5.45
2023-05-20T10:40:54.137Z,3.65
2023-05-20T10:43:30.587Z,5.35
2023-05-20T10:45:58.264Z,6.43
2023-05-20T10:48:26.478Z,3.60
2023-05-20T10:51:04.821Z,5.72
2023-05-20T10:53:39.866Z,6.32
2023-05-20T10:56:06.745Z,3.92
2023-05-20T10:58:38.350Z,4.07
2023-05-20T11:01:05.048Z,2.80
2023-05-20T11:03:32.020Z,3.88
2023-05-20T11:05:58.626Z,4.55
2023-05-20T11:08:29.718Z,4.28
2023-05-20T11:10:57.398Z,6.80
2023-05-20T11:13:23.918Z,4.75
2023-05-20T11:15:50.549Z,5.30
2023-05-20T11:18:18.925Z,3.70
2023-05-20T11:20:46.914Z,3.97
2023-05-20T11:23:14.773Z,3.63
2023-05-20T11:25:41.739Z,5.55
2023-05-20T11:28:12.524Z,3.88
2023-05-20T11:30:39.105Z,5.10
2023-05-20T11:33:05.982Z,3.58
2023-05-20T11:35:33.257Z,3.90
2023-05-20T11:38:05.221Z,5.18
2023-05-20T11:40:42.733Z,3.38
2023-05-20T11:43:17.161Z,5.43
2023-05-20T11:45:45.781Z,4.68
2023-05-20T11:48:12.592Z,4.18
2023-05-20T11:50:41.009Z,5.13
2023-05-20T11:53:15.227Z,4.00
2023-05-20T11:55:58.245Z,7.65
2023-05-20T11:58:26.775Z,3.08
2023-05-20T12:00:59.490Z,4.53
2023-05-20T12:03:33.035Z,4.00
2023-05-20T12:06:01.598Z,7.32
2023-05-20T12:08:28.061Z,4.15
2023-05-20T12:10:54.620Z,4.25
2023-05-20T12:13:21.151Z,5.05
2023-05-20T12:15:47.678Z,5.10
2023-05-20T12:18:14.221Z,3.60
2023-05-20T12:20:40.854Z,5.20
2023-05-20T12:23:07.385Z,3.60
2023-05-20T12:25:33.895Z,5.00
2023-05-20T12:28:02.018Z,4.45
2023-05-20T12:30:28.498Z,4.28
2023-05-20T12:32:55.025Z,4.55
2023-05-20T12:35:25.931Z,6.18
2023-05-20T12:37:52.649Z,5.38
2023-05-20T12:40:19.158Z,5.53
2023-05-20T12:42:45.729Z,5.53
2023-05-20T12:45:13.393Z,3.78
2023-05-20T12:47:39.906Z,7.97
2023-05-20T12:50:07.080Z,5.38
2023-05-20T12:52:33.606Z,4.75
2023-05-20T12:55:00.244Z,4.93
2023-05-20T12:57:26.777Z,4.75
2023-05-20T12:59:53.565Z,2.92
2023-05-20T13:02:20.875Z,5.97
2023-05-20T13:04:47.437Z,3.08
2023-05-20T13:07:14.011Z,3.47
2023-05-20T13:09:40.818Z,4.47
2023-05-20T13:12:07.754Z,5.22
2023-05-20T13:14:34.260Z,3.10
2023-05-20T13:17:00.909Z,5.22
2023-05-20T13:19:27.607Z,5.15
2023-05-20T13:21:54.639Z,3.95
2023-05-20T13:24:21.768Z,4.88
2023-05-20T13:26:48.317Z,5.10
2023-05-20T13:29:14.820Z,6.50
2023-05-20T13:31:41.327Z,5.78
2023-05-20T13:34:07.848Z,4.57
2023-05-20T13:36:34.361Z,7.53
2023-05-20T13:39:00.940Z,4.78
2023-05-20T13:41:27.672Z,3.47
2023-05-20T13:43:54.179Z,3.30
2023-05-20T13:46:20.756Z,4.22
2023-05-20T13:48:47.234Z,4.28
2023-05-20T13:51:13.952Z,2.78
2023-05-20T13:53:40.491Z,4.65
2023-05-20T13:56:09.239Z,3.15
2023-05-20T13:58:38.745Z,4.18
2023-05-20T14:01:06.230Z,5.10
2023-05-20T14:03:37.340Z,2.85
2023-05-20T14:06:04.193Z,3.78
2023-05-20T14:08:30.738Z,3.72
2023-05-20T14:10:57.265Z,6.15
2023-05-20T14:13:24.166Z,4.88
2023-05-20T14:15:51.594Z,4.38
2023-05-20T14:18:18.601Z,4.88
2023-05-20T14:20:45.516Z,5.05
2023-05-20T14:23:12.947Z,4.38
2023-05-20T14:25:39.796Z,3.83
2023-05-20T14:28:06.721Z,4.35
2023-05-20T14:30:33.397Z,3.80
2023-05-20T14:33:00.113Z,4.97
2023-05-20T14:35:26.751Z,9.15
2023-05-20T14:37:53.288Z,5.60
2023-05-20T14:40:19.849Z,7.72
2023-05-20T14:42:46.392Z,4.88
2023-05-20T14:45:12.851Z,3.88
2023-05-20T14:47:41.948Z,5.00
2023-05-20T14:50:08.799Z,3.78
2023-05-20T14:52:35.361Z,3.45
2023-05-20T14:55:01.858Z,5.80
2023-05-20T14:57:28.344Z,4.68
2023-05-20T14:59:54.940Z,3.75
2023-05-20T15:02:21.505Z,4.60
2023-05-20T15:04:48.673Z,3.78
2023-05-20T15:07:15.573Z,4.25
2023-05-20T15:09:43.564Z,2.97
2023-05-20T15:12:11.173Z,6.57
2023-05-20T15:14:37.724Z,5.55
2023-05-20T15:17:04.836Z,6.20
2023-05-20T15:19:32.617Z,3.42
2023-05-20T15:21:59.747Z,4.22
2023-05-20T15:24:26.354Z,3.80
2023-05-20T15:26:54.026Z,5.53
2023-05-20T15:29:21.070Z,6.32
2023-05-20T15:31:47.695Z,4.57
2023-05-20T15:34:14.313Z,5.90
2023-05-20T15:36:40.807Z,5.10
2023-05-20T15:39:07.540Z,6.65
2023-05-20T15:41:33.981Z,3.80
2023-05-20T15:44:00.592Z,3.75
2023-05-20T15:46:27.293Z,6.47
2023-05-20T15:48:56.099Z,5.45
2023-05-20T15:51:23.181Z,5.32
2023-05-20T15:53:49.692Z,4.47
2023-05-20T15:56:16.631Z,4.35
2023-05-20T15:58:44.456Z,4.30
2023-05-20T16:01:11.179Z,5.07
2023-05-20T16:03:37.841Z,5.70
2023-05-20T16:06:04.607Z,7.63
2023-05-20T16:08:31.210Z,5.63
2023-05-20T16:10:57.733Z,5.95
2023-05-20T16:13:24.197Z,6.60
2023-05-20T16:15:51.353Z,3.25
2023-05-20T16:18:18.062Z,5.20
2023-05-20T16:20:44.660Z,5.72
2023-05-20T16:23:11.387Z,4.93
2023-05-20T16:25:37.837Z,5.05
2023-05-20T16:28:04.322Z,4.47
2023-05-20T16:30:31.578Z,5.82
2023-05-20T16:32:58.084Z,7.38
2023-05-20T16:35:24.557Z,4.35
2023-05-20T16:37:51.032Z,3.33
2023-05-20T16:40:17.660Z,4.18
2023-05-20T16:42:44.784Z,5.53
2023-05-20T16:45:11.818Z,3.42
2023-05-20T16:47:38.481Z,7.20
2023-05-20T16:50:05.488Z,5.55
2023-05-20T16:52:33.691Z,7.15
2023-05-20T16:55:03.580Z,4.03
2023-05-20T16:57:30.683Z,5.03
2023-05-20T16:59:58.291Z,4.20
2023-05-20T17:02:25.025Z,7.22
2023-05-20T17:04:51.938Z,5.05
2023-05-20T17:07:18.486Z,3.30
2023-05-20T17:09:44.935Z,7.20
2023-05-20T17:12:11.489Z,3.88
2023-05-20T17:14:38.012Z,5.05
2023-05-20T17:17:05.224Z,5.05
2023-05-20T17:19:31.895Z,4.32
2023-05-20T17:21:58.406Z,5.20
2023-05-20T17:24:24.918Z,4.43
2023-05-20T17:26:51.433Z,3.83
2023-05-20T17:29:17.944Z,3.05
2023-05-20T17:31:44.685Z,5.53
2023-05-20T17:34:11.381Z,5.18
2023-05-20T17:36:37.915Z,4.90
2023-05-20T17:39:04.650Z,5.05
2023-05-20T17:41:31.650Z,4.43
2023-05-20T17:43:58.102Z,4.22
2023-05-20T17:46:24.603Z,3.60
2023-05-20T17:48:51.240Z,3.10
2023-05-20T17:51:17.783Z,6.25
2023-05-20T17:53:44.343Z,4.55
2023-05-20T17:56:10.965Z,5.25
2023-05-20T17:58:37.635Z,3.42
2023-05-20T18:01:04.226Z,4.15
2023-05-20T18:03:30.797Z,4.78
2023-05-20T18:05:57.342Z,3.20
2023-05-20T18:08:25.367Z,4.25
2023-05-20T18:10:52.304Z,5.80
2023-05-20T18:13:18.804Z,4.32
2023-05-20T18:15:45.635Z,5.18
2023-05-20T18:18:12.318Z,6.20
2023-05-20T18:20:38.817Z,3.97
2023-05-20T18:23:05.365Z,4.28
2023-05-20T18:25:31.928Z,5.30
2023-05-20T18:27:58.389Z,4.47
2023-05-20T18:30:24.978Z,4.00
2023-05-20T18:32:51.771Z,3.78
2023-05-20T18:35:18.275Z,8.00
2023-05-20T18:37:44.752Z,5.90
2023-05-20T18:40:11.737Z,3.55
2023-05-20T18:42:38.259Z,3.75
2023-05-20T18:45:05.273Z,6.63
2023-05-20T18:47:31.864Z,4.65
2023-05-20T18:49:58.392Z,5.82
2023-05-20T18:52:24.885Z,4.53
2023-05-20T18:54:51.387Z,4.47
2023-05-20T18:57:17.918Z,5.65
2023-05-20T18:59:44.546Z,5.03
2023-05-20T19:02:11.361Z,4.65
2023-05-20T19:04:37.844Z,5.18
2023-05-20T19:07:04.444Z,4.93
2023-05-20T19:09:31.201Z,6.10
2023-05-20T19:11:59.032Z,5.78
2023-05-20T19:14:25.904Z,3.25
2023-05-20T19:16:53.071Z,5.38
2023-05-20T19:19:19.666Z,4.25
2023-05-20T19:21:46.176Z,3.33
2023-05-20T19:24:12.659Z,4.30
2023-05-20T19:26:39.644Z,3.88
2023-05-20T19:29:06.866Z,5.40
2023-05-20T19:31:33.442Z,6.35
2023-05-20T19:33:59.864Z,4.45
2023-05-20T19:36:26.475Z,5.32
2023-05-20T19:38:52.974Z,6.15
2023-05-20T19:41:19.519Z,5.15
2023-05-20T19:43:46.079Z,3.83
2023-05-20T19:46:12.609Z,4.78
2023-05-20T19:48:39.136Z,4.93
2023-05-20T19:51:05.799Z,4.32
2023-05-20T19:53:32.258Z,4.57
2023-05-20T19:55:58.691Z,7.25
2023-05-20T19:58:25.144Z,5.65
2023-05-20T20:00:51.720Z,3.75
2023-05-20T20:03:18.307Z,3.92
2023-05-20T20:05:44.784Z,4.28
2023-05-20T20:08:11.275Z,3.97
2023-05-20T20:10:37.864Z,4.45
2023-05-20T20:13:04.444Z,4.40
2023-05-20T20:15:31.979Z,4.20
2023-05-20T20:17:59.133Z,3.80
2023-05-20T20:20:26.810Z,4.90
2023-05-20T20:22:53.254Z,3.70
2023-05-20T20:25:20.527Z,4.22
2023-05-20T20:27:48.652Z,5.00
2023-05-20T20:30:15.500Z,4.28
2023-05-20T20:32:42.691Z,3.97
2023-05-20T20:35:10.652Z,4.50
2023-05-20T20:37:39.428Z,3.97
2023-05-20T20:40:08.037Z,6.72
2023-05-20T20:42:34.928Z,5.97
2023-05-20T20:45:02.278Z,4.43
2023-05-20T20:47:29.240Z,5.07
2023-05-20T20:49:58.804Z,5.18
2023-05-20T20:52:25.374Z,3.25
2023-05-20T20:54:53.116Z,7.78
2023-05-20T20:57:23.858Z,5.20
2023-05-20T20:59:53.717Z,4.10
2023-05-20T21:02:20.755Z,4.20
2023-05-20T21:04:47.485Z,5.85
2023-05-20T21:07:17.987Z,5.50
2023-05-20T21:09:45.513Z,4.63
2023-05-20T21:12:12.057Z,4.72
2023-05-20T21:14:44.137Z,4.70
2023-05-20T21:17:11.210Z,4.57
2023-05-20T21:19:38.571Z,4.82
2023-05-20T21:22:05.189Z,3.95
2023-05-20T21:24:31.616Z,3.60
2023-05-20T21:26:58.090Z,3.88
2023-05-20T21:29:24.545Z,4.68
2023-05-20T21:31:51.128Z,5.47
2023-05-20T21:34:17.569Z,3.63
2023-05-20T21:36:44.014Z,3.58
2023-05-20T21:39:10.477Z,4.88
2023-05-20T21:41:36.998Z,3.55
2023-05-20T21:44:03.597Z,4.05
2023-05-20T21:46:30.133Z,4.25
2023-05-20T21:48:56.766Z,5.55
2023-05-20T21:51:23.235Z,4.32
2023-05-20T21:53:49.672Z,3.35
2023-05-20T21:56:16.246Z,3.95
2023-05-20T21:58:42.763Z,5.20
2023-05-20T22:01:09.755Z,4.45
2023-05-20T22:03:36.774Z,4.18
2023-05-20T22:06:05.030Z,3.63
2023-05-20T22:08:33.744Z,3.85
2023-05-20T22:11:05.740Z,4.20
2023-05-20T22:13:33.126Z,4.65
2023-05-20T22:16:01.393Z,4.85
2023-05-20T22:18:29.128Z,6.15
2023-05-20T22:20:56.271Z,4.93
2023-05-20T22:23:22.793Z,5.90
2023-05-20T22:25:52.324Z,4.43
2023-05-20T22:28:18.843Z,4.72
2023-05-20T22:30:45.274Z,4.03
2023-05-20T22:33:12.007Z,4.88
2023-05-20T22:35:38.739Z,4.28
2023-05-20T22:38:05.326Z,4.07
2023-05-20T22:40:33.449Z,3.97
2023-05-20T22:42:59.945Z,3.80
2023-05-20T22:45:26.424Z,5.63
2023-05-20T22:47:54.316Z,3.60
2023-05-20T22:50:20.889Z,5.78
2023-05-20T22:52:47.452Z,3.80
2023-05-20T22:55:13.972Z,5.95
2023-05-20T22:57:40.506Z,4.78
2023-05-20T23:00:07.872Z,7.78
2023-05-20T23:02:35.143Z,3.33
2023-05-20T23:05:03.800Z,6.55
2023-05-20T23:07:31.257Z,4.40
2023-05-20T23:09:57.742Z,3.60
2023-05-20T23:12:24.318Z,5.05
2023-05-20T23:14:51.684Z,4.45
2023-05-20T23:17:18.194Z,5.20
2023-05-20T23:19:44.728Z,6.28
2023-05-20T23:22:14.088Z,5.18
2023-05-20T23:24:40.594Z,4.03
2023-05-20T23:27:07.095Z,4.72
2023-05-20T23:29:33.910Z,3.78
2023-05-20T23:32:00.426Z,4.38
2023-05-20T23:34:27.333Z,6.13
2023-05-20T23:36:53.844Z,4.05
2023-05-20T23:39:20.863Z,4.28
2023-05-20T23:41:47.392Z,4.40
2023-05-20T23:44:13.934Z,4.03
2023-05-20T23:46:41.760Z,4.80
2023-05-20T23:49:10.041Z,6.22
2023-05-20T23:51:36.552Z,6.25
2023-05-20T23:54:02.989Z,5.35
2023-05-20T23:56:29.423Z,4.47
2023-05-20T23:58:57.714Z,4.22
